52.0°F
Current conditions from King Hill
Updated every 5 minutes
 
  Thursday October 2, 2014

Station Historical Data
Daily Summary for August 09, 2012 Units:  Both    English   Metric
« Previous Day
Next Day »
Daily Weekly Monthly Yearly Custom
  High: Low: Average:
Temperature: 80.9 °F /  27.2 °C 60.0 °F /  15.6 °C 69.1 °F /  20.6 °C
Dew Point: 70.6 °F /  21.4 °C 58.1 °F /  14.5 °C 64.9 °F /  18.3 °C
Humidity: 96% 65% 87%
Wind Speed: 5.0mph /  8km/h - 2.1mph /  3.4km/h
Wind Gust: 11.0mph /  17.7km/h - -
Wind- - SSW
Pressure: 29.91 in /  1012.8 hPa 29.82 in /  1009.7 hPa -
Precipitation: 0.27 in /  6.9 mm    
Historical Graphs
 
 
Tabular Data for August 09, 2012
Time Temperature Dew Point Pressure Wind Wind Speed Wind Gust Humidity Daily Rainfall
00:04 61.1 °F /  16.2 °C 58.1 °F /  14.5 °C 29.88in /  1011.7hPa Calm     90% 0.00in /  0mm
00:09 61.6 °F /  16.4 °C 58.9 °F /  14.9 °C 29.88in /  1011.7hPa Calm   1.0mph /  1.6km/h 91% 0.00in /  0mm
00:14 62.0 °F /  16.7 °C 59.3 °F /  15.2 °C 29.88in /  1011.7hPa Calm   1.0mph /  1.6km/h 91% 0.00in /  0mm
00:19 62.2 °F /  16.8 °C 59.5 °F /  15.3 °C 29.88in /  1011.7hPa Calm     91% 0.00in /  0mm
00:24 62.3 °F /  16.8 °C 59.6 °F /  15.3 °C 29.88in /  1011.7hPa Calm     91% 0.00in /  0mm
00:29 62.3 °F /  16.8 °C 59.6 °F /  15.3 °C 29.88in /  1011.7hPa Calm     91% 0.00in /  0mm
00:34 62.4 °F /  16.9 °C 59.7 °F /  15.4 °C 29.88in /  1011.7hPa Calm     91% 0.00in /  0mm
00:39 62.4 °F /  16.9 °C 59.7 °F /  15.4 °C 29.88in /  1011.7hPa Calm     91% 0.00in /  0mm
00:44 62.5 °F /  16.9 °C 59.8 °F /  15.4 °C 29.89in /  1012.1hPa Calm     91% 0.00in /  0mm
00:49 62.4 °F /  16.9 °C 59.7 °F /  15.4 °C 29.88in /  1011.7hPa Calm     91% 0.00in /  0mm
00:54 62.5 °F /  16.9 °C 59.8 °F /  15.4 °C 29.88in /  1011.7hPa Calm     91% 0.00in /  0mm
00:59 62.5 °F /  16.9 °C 59.8 °F /  15.4 °C 29.88in /  1011.7hPa Calm     91% 0.00in /  0mm
01:04 62.5 °F /  16.9 °C 59.8 °F /  15.4 °C 29.88in /  1011.7hPa Calm     91% 0.00in /  0mm
01:09 62.3 °F /  16.8 °C 59.6 °F /  15.3 °C 29.88in /  1011.7hPa Calm     91% 0.00in /  0mm
01:14 62.4 °F /  16.9 °C 59.7 °F /  15.4 °C 29.88in /  1011.7hPa Calm     91% 0.00in /  0mm
01:19 62.5 °F /  16.9 °C 59.8 °F /  15.4 °C 29.88in /  1011.7hPa Calm     91% 0.00in /  0mm
01:24 62.5 °F /  16.9 °C 59.8 °F /  15.4 °C 29.88in /  1011.7hPa Calm     91% 0.00in /  0mm
01:29 62.4 °F /  16.9 °C 59.4 °F /  15.2 °C 29.88in /  1011.7hPa Calm     90% 0.00in /  0mm
01:34 62.2 °F /  16.8 °C 59.5 °F /  15.3 °C 29.88in /  1011.7hPa Calm     91% 0.00in /  0mm
01:39 62.1 °F /  16.7 °C 59.4 °F /  15.2 °C 29.88in /  1011.7hPa Calm     91% 0.00in /  0mm
01:44 61.9 °F /  16.6 °C 58.9 °F /  14.9 °C 29.88in /  1011.7hPa Calm     90% 0.00in /  0mm
01:49 61.7 °F /  16.5 °C 58.7 °F /  14.8 °C 29.88in /  1011.7hPa Calm     90% 0.00in /  0mm
01:54 61.5 °F /  16.4 °C 58.9 °F /  14.9 °C 29.88in /  1011.7hPa Calm     91% 0.00in /  0mm
01:59 61.5 °F /  16.4 °C 58.9 °F /  14.9 °C 29.88in /  1011.7hPa Calm     91% 0.00in /  0mm
02:04 61.4 °F /  16.3 °C 58.8 °F /  14.9 °C 29.87in /  1011.4hPa Calm     91% 0.00in /  0mm
02:14 61.5 °F /  16.4 °C 58.9 °F /  14.9 °C 29.88in /  1011.7hPa Calm     91% 0.00in /  0mm
02:19 61.4 °F /  16.3 °C 58.8 °F /  14.9 °C 29.87in /  1011.4hPa Calm     91% 0.00in /  0mm
02:24 61.9 °F /  16.6 °C 59.9 °F /  15.5 °C 29.87in /  1011.4hPa Calm   1.0mph /  1.6km/h 93% 0.00in /  0mm
02:29 61.9 °F /  16.6 °C 59.6 °F /  15.3 °C 29.87in /  1011.4hPa Calm   1.0mph /  1.6km/h 92% 0.00in /  0mm
02:39 60.9 °F /  16.1 °C 58.6 °F /  14.8 °C 29.88in /  1011.7hPa Calm   2.0mph /  3.2km/h 92% 0.00in /  0mm
02:44 60.6 °F /  15.9 °C 58.3 °F /  14.6 °C 29.87in /  1011.4hPa Calm   1.0mph /  1.6km/h 92% 0.00in /  0mm
02:49 60.8 °F /  16 °C 58.5 °F /  14.7 °C 29.87in /  1011.4hPa Calm     92% 0.00in /  0mm
02:54 60.9 °F /  16.1 °C 58.6 °F /  14.8 °C 29.87in /  1011.4hPa Calm     92% 0.00in /  0mm
02:59 61.0 °F /  16.1 °C 58.7 °F /  14.8 °C 29.87in /  1011.4hPa Calm     92% 0.00in /  0mm
03:04 61.0 °F /  16.1 °C 59.0 °F /  15 °C 29.87in /  1011.4hPa Calm     93% 0.00in /  0mm
03:09 61.3 °F /  16.3 °C 59.3 °F /  15.2 °C 29.87in /  1011.4hPa Calm     93% 0.00in /  0mm
03:14 61.3 °F /  16.3 °C 59.3 °F /  15.2 °C 29.87in /  1011.4hPa Calm     93% 0.00in /  0mm
03:19 61.1 °F /  16.2 °C 59.1 °F /  15.1 °C 29.87in /  1011.4hPa Calm     93% 0.00in /  0mm
03:24 60.9 °F /  16.1 °C 58.9 °F /  14.9 °C 29.87in /  1011.4hPa Calm     93% 0.00in /  0mm
03:29 60.6 °F /  15.9 °C 58.6 °F /  14.8 °C 29.87in /  1011.4hPa Calm     93% 0.00in /  0mm
03:34 60.4 °F /  15.8 °C 58.4 °F /  14.7 °C 29.87in /  1011.4hPa Calm     93% 0.00in /  0mm
03:39 60.4 °F /  15.8 °C 58.4 °F /  14.7 °C 29.87in /  1011.4hPa Calm     93% 0.00in /  0mm
03:44 60.3 °F /  15.7 °C 58.3 °F /  14.6 °C 29.87in /  1011.4hPa Calm     93% 0.00in /  0mm
03:49 60.3 °F /  15.7 °C 58.3 °F /  14.6 °C 29.87in /  1011.4hPa Calm     93% 0.00in /  0mm
03:54 60.4 °F /  15.8 °C 58.4 °F /  14.7 °C 29.87in /  1011.4hPa Calm   2.0mph /  3.2km/h 93% 0.00in /  0mm
03:59 60.7 °F /  15.9 °C 59.0 °F /  15 °C 29.87in /  1011.4hPa Calm   2.0mph /  3.2km/h 94% 0.00in /  0mm
04:04 61.1 °F /  16.2 °C 59.7 °F /  15.4 °C 29.87in /  1011.4hPa Calm   3.0mph /  4.8km/h 95% 0.00in /  0mm
04:09 61.4 °F /  16.3 °C 60.0 °F /  15.6 °C 29.87in /  1011.4hPa Calm   3.0mph /  4.8km/h 95% 0.00in /  0mm
04:14 61.6 °F /  16.4 °C 60.2 °F /  15.7 °C 29.87in /  1011.4hPa Calm   3.0mph /  4.8km/h 95% 0.00in /  0mm
04:19 61.6 °F /  16.4 °C 60.2 °F /  15.7 °C 29.87in /  1011.4hPa Calm   3.0mph /  4.8km/h 95% 0.00in /  0mm
04:24 61.6 °F /  16.4 °C 60.2 °F /  15.7 °C 29.87in /  1011.4hPa Calm   3.0mph /  4.8km/h 95% 0.00in /  0mm
04:29 61.6 °F /  16.4 °C 60.2 °F /  15.7 °C 29.87in /  1011.4hPa Calm   3.0mph /  4.8km/h 95% 0.00in /  0mm
04:39 61.7 °F /  16.5 °C 60.3 °F /  15.7 °C 29.87in /  1011.4hPa Calm   3.0mph /  4.8km/h 95% 0.00in /  0mm
04:44 61.7 °F /  16.5 °C 60.3 °F /  15.7 °C 29.87in /  1011.4hPa Calm   3.0mph /  4.8km/h 95% 0.00in /  0mm
04:49 61.8 °F /  16.6 °C 60.1 °F /  15.6 °C 29.87in /  1011.4hPa Calm     94% 0.00in /  0mm
04:54 61.6 °F /  16.4 °C 59.9 °F /  15.5 °C 29.87in /  1011.4hPa Calm     94% 0.00in /  0mm
04:59 61.4 °F /  16.3 °C 59.7 °F /  15.4 °C 29.87in /  1011.4hPa Calm     94% 0.00in /  0mm
05:09 61.1 °F /  16.2 °C 59.4 °F /  15.2 °C 29.87in /  1011.4hPa Calm     94% 0.00in /  0mm
05:14 60.9 °F /  16.1 °C 59.2 °F /  15.1 °C 29.88in /  1011.7hPa Calm     94% 0.00in /  0mm
05:19 60.7 °F /  15.9 °C 59.0 °F /  15 °C 29.88in /  1011.7hPa Calm     94% 0.00in /  0mm
05:29 60.4 °F /  15.8 °C 58.7 °F /  14.8 °C 29.88in /  1011.7hPa Calm     94% 0.00in /  0mm
05:34 60.5 °F /  15.8 °C 58.8 °F /  14.9 °C 29.88in /  1011.7hPa Calm     94% 0.00in /  0mm
05:39 60.5 °F /  15.8 °C 58.8 °F /  14.9 °C 29.88in /  1011.7hPa Calm     94% 0.00in /  0mm
05:44 60.5 °F /  15.8 °C 58.8 °F /  14.9 °C 29.88in /  1011.7hPa Calm     94% 0.00in /  0mm
05:49 60.5 °F /  15.8 °C 58.8 °F /  14.9 °C 29.88in /  1011.7hPa Calm     94% 0.00in /  0mm
05:54 60.4 °F /  15.8 °C 58.7 °F /  14.8 °C 29.88in /  1011.7hPa Calm     94% 0.00in /  0mm
05:59 60.3 °F /  15.7 °C 58.9 °F /  14.9 °C 29.88in /  1011.7hPa Calm     95% 0.00in /  0mm
06:04 60.2 °F /  15.7 °C 58.8 °F /  14.9 °C 29.88in /  1011.7hPa Calm     95% 0.00in /  0mm
06:09 60.2 °F /  15.7 °C 58.8 °F /  14.9 °C 29.88in /  1011.7hPa Calm     95% 0.00in /  0mm
06:14 60.2 °F /  15.7 °C 58.8 °F /  14.9 °C 29.88in /  1011.7hPa Calm     95% 0.00in /  0mm
06:19 60.1 °F /  15.6 °C 58.7 °F /  14.8 °C 29.89in /  1012.1hPa Calm     95% 0.00in /  0mm
06:24 60.0 °F /  15.6 °C 58.6 °F /  14.8 °C 29.89in /  1012.1hPa Calm     95% 0.00in /  0mm
06:29 60.1 °F /  15.6 °C 58.7 °F /  14.8 °C 29.89in /  1012.1hPa Calm     95% 0.00in /  0mm
06:34 60.3 °F /  15.7 °C 58.9 °F /  14.9 °C 29.89in /  1012.1hPa Calm     95% 0.00in /  0mm
06:44 60.7 °F /  15.9 °C 59.3 °F /  15.2 °C 29.89in /  1012.1hPa Calm     95% 0.00in /  0mm
06:49 61.0 °F /  16.1 °C 59.6 °F /  15.3 °C 29.90in /  1012.4hPa Calm     95% 0.00in /  0mm
06:54 61.3 °F /  16.3 °C 59.9 °F /  15.5 °C 29.90in /  1012.4hPa Calm     95% 0.00in /  0mm
06:59 61.7 °F /  16.5 °C 60.3 °F /  15.7 °C 29.90in /  1012.4hPa Calm     95% 0.00in /  0mm
07:04 62.1 °F /  16.7 °C 60.7 °F /  15.9 °C 29.90in /  1012.4hPa Calm     95% 0.00in /  0mm
07:09 62.7 °F /  17.1 °C 61.5 °F /  16.4 °C 29.90in /  1012.4hPa Calm     96% 0.00in /  0mm
07:14 63.3 °F /  17.4 °C 62.1 °F /  16.7 °C 29.90in /  1012.4hPa Calm     96% 0.00in /  0mm
07:19 63.7 °F /  17.6 °C 62.5 °F /  16.9 °C 29.90in /  1012.4hPa Calm     96% 0.00in /  0mm
07:24 64.0 °F /  17.8 °C 62.8 °F /  17.1 °C 29.90in /  1012.4hPa Calm     96% 0.00in /  0mm
07:29 64.4 °F /  18 °C 63.2 °F /  17.3 °C 29.90in /  1012.4hPa Calm     96% 0.00in /  0mm
07:34 64.9 °F /  18.3 °C 63.7 °F /  17.6 °C 29.91in /  1012.8hPa Calm     96% 0.00in /  0mm
07:44 65.7 °F /  18.7 °C 64.5 °F /  18.1 °C 29.91in /  1012.8hPa Calm     96% 0.00in /  0mm
07:49 66.3 °F /  19.1 °C 65.1 °F /  18.4 °C 29.91in /  1012.8hPa Calm     96% 0.00in /  0mm
07:59 66.1 °F /  18.9 °C 64.9 °F /  18.3 °C 29.91in /  1012.8hPa SW 1.0mph /  1.6km/h 5.0mph /  8km/h 96% 0.00in /  0mm
08:04 66.2 °F /  19 °C 65.0 °F /  18.3 °C 29.91in /  1012.8hPa SSW 2.0mph /  3.2km/h 7.0mph /  11.3km/h 96% 0.00in /  0mm
08:09 66.6 °F /  19.2 °C 65.4 °F /  18.6 °C 29.90in /  1012.4hPa SSW 1.0mph /  1.6km/h 7.0mph /  11.3km/h 96% 0.00in /  0mm
08:14 67.0 °F /  19.4 °C 65.5 °F /  18.6 °C 29.90in /  1012.4hPa Calm   6.0mph /  9.7km/h 95% 0.00in /  0mm
08:19 67.4 °F /  19.7 °C 65.6 °F /  18.7 °C 29.90in /  1012.4hPa Calm   5.0mph /  8km/h 94% 0.00in /  0mm
08:24 67.8 °F /  19.9 °C 65.4 °F /  18.6 °C 29.90in /  1012.4hPa Calm   1.0mph /  1.6km/h 92% 0.00in /  0mm
08:29 68.1 °F /  20.1 °C 65.1 °F /  18.4 °C 29.90in /  1012.4hPa Calm   3.0mph /  4.8km/h 90% 0.00in /  0mm
08:34 68.6 °F /  20.3 °C 64.9 °F /  18.3 °C 29.90in /  1012.4hPa Calm   3.0mph /  4.8km/h 88% 0.00in /  0mm
08:39 68.8 °F /  20.4 °C 64.1 °F /  17.8 °C 29.90in /  1012.4hPa SSW 2.0mph /  3.2km/h 6.0mph /  9.7km/h 85% 0.00in /  0mm
08:44 68.9 °F /  20.5 °C 64.2 °F /  17.9 °C 29.90in /  1012.4hPa Calm   6.0mph /  9.7km/h 85% 0.00in /  0mm
08:49 69.3 °F /  20.7 °C 64.6 °F /  18.1 °C 29.90in /  1012.4hPa SSW 3.0mph /  4.8km/h 8.0mph /  12.9km/h 85% 0.00in /  0mm
08:54 70.0 °F /  21.1 °C 64.9 °F /  18.3 °C 29.90in /  1012.4hPa SSW 4.0mph /  6.4km/h 8.0mph /  12.9km/h 84% 0.00in /  0mm
08:59 70.7 °F /  21.5 °C 64.9 °F /  18.3 °C 29.90in /  1012.4hPa South 4.0mph /  6.4km/h 8.0mph /  12.9km/h 82% 0.00in /  0mm
09:04 71.5 °F /  21.9 °C 65.7 °F /  18.7 °C 29.89in /  1012.1hPa SSW 2.0mph /  3.2km/h 8.0mph /  12.9km/h 82% 0.00in /  0mm
09:09 72.2 °F /  22.3 °C 66.1 °F /  18.9 °C 29.89in /  1012.1hPa SW 5.0mph /  8km/h 10.0mph /  16.1km/h 81% 0.00in /  0mm
09:14 72.7 °F /  22.6 °C 66.2 °F /  19 °C 29.89in /  1012.1hPa SW 4.0mph /  6.4km/h 11.0mph /  17.7km/h 80% 0.00in /  0mm
09:19 73.3 °F /  22.9 °C 66.4 °F /  19.1 °C 29.89in /  1012.1hPa SSW 3.0mph /  4.8km/h 11.0mph /  17.7km/h 79% 0.00in /  0mm
09:24 73.8 °F /  23.2 °C 66.9 °F /  19.4 °C 29.89in /  1012.1hPa WSW 1.0mph /  1.6km/h 9.0mph /  14.5km/h 79% 0.00in /  0mm
09:29 74.2 °F /  23.4 °C 66.9 °F /  19.4 °C 29.90in /  1012.4hPa SSW 4.0mph /  6.4km/h 10.0mph /  16.1km/h 78% 0.00in /  0mm
09:34 74.5 °F /  23.6 °C 67.2 °F /  19.6 °C 29.90in /  1012.4hPa West 2.0mph /  3.2km/h 10.0mph /  16.1km/h 78% 0.00in /  0mm
09:39 74.8 °F /  23.8 °C 67.1 °F /  19.5 °C 29.90in /  1012.4hPa SW 4.0mph /  6.4km/h 11.0mph /  17.7km/h 77% 0.00in /  0mm
09:44 74.2 °F /  23.4 °C 66.5 °F /  19.2 °C 29.90in /  1012.4hPa SW 4.0mph /  6.4km/h 11.0mph /  17.7km/h 77% 0.00in /  0mm
09:49 73.8 °F /  23.2 °C 66.5 °F /  19.2 °C 29.90in /  1012.4hPa WSW 2.0mph /  3.2km/h 9.0mph /  14.5km/h 78% 0.00in /  0mm
09:54 73.0 °F /  22.8 °C 66.1 °F /  18.9 °C 29.90in /  1012.4hPa Calm   8.0mph /  12.9km/h 79% 0.00in /  0mm
09:59 72.5 °F /  22.5 °C 66.0 °F /  18.9 °C 29.90in /  1012.4hPa Calm   8.0mph /  12.9km/h 80% 0.00in /  0mm
10:04 72.3 °F /  22.4 °C 65.8 °F /  18.8 °C 29.90in /  1012.4hPa SW 2.0mph /  3.2km/h 7.0mph /  11.3km/h 80% 0.00in /  0mm
10:09 72.1 °F /  22.3 °C 66.0 °F /  18.9 °C 29.90in /  1012.4hPa SW 1.0mph /  1.6km/h 5.0mph /  8km/h 81% 0.00in /  0mm
10:14 71.8 °F /  22.1 °C 65.7 °F /  18.7 °C 29.90in /  1012.4hPa SW 1.0mph /  1.6km/h 5.0mph /  8km/h 81% 0.00in /  0mm
10:19 71.5 °F /  21.9 °C 65.7 °F /  18.7 °C 29.90in /  1012.4hPa Calm   5.0mph /  8km/h 82% 0.00in /  0mm
10:24 71.5 °F /  21.9 °C 65.7 °F /  18.7 °C 29.90in /  1012.4hPa Calm   4.0mph /  6.4km/h 82% 0.00in /  0mm
10:29 71.4 °F /  21.9 °C 65.6 °F /  18.7 °C 29.90in /  1012.4hPa Calm   1.0mph /  1.6km/h 82% 0.00in /  0mm
10:34 71.4 °F /  21.9 °C 66.0 °F /  18.9 °C 29.90in /  1012.4hPa Calm   1.0mph /  1.6km/h 83% 0.00in /  0mm
10:39 71.5 °F /  21.9 °C 66.1 °F /  18.9 °C 29.90in /  1012.4hPa Calm   1.0mph /  1.6km/h 83% 0.00in /  0mm
10:44 71.5 °F /  21.9 °C 66.1 °F /  18.9 °C 29.90in /  1012.4hPa Calm   1.0mph /  1.6km/h 83% 0.00in /  0mm
10:49 71.5 °F /  21.9 °C 65.7 °F /  18.7 °C 29.90in /  1012.4hPa SW 1.0mph /  1.6km/h 4.0mph /  6.4km/h 82% 0.00in /  0mm
10:54 71.6 °F /  22 °C 65.8 °F /  18.8 °C 29.89in /  1012.1hPa SW 1.0mph /  1.6km/h 4.0mph /  6.4km/h 82% 0.00in /  0mm
10:59 71.6 °F /  22 °C 65.1 °F /  18.4 °C 29.89in /  1012.1hPa Calm   4.0mph /  6.4km/h 80% 0.00in /  0mm
11:04 71.6 °F /  22 °C 65.5 °F /  18.6 °C 29.89in /  1012.1hPa Calm   1.0mph /  1.6km/h 81% 0.00in /  0mm
11:09 71.7 °F /  22.1 °C 65.6 °F /  18.7 °C 29.89in /  1012.1hPa Calm   1.0mph /  1.6km/h 81% 0.00in /  0mm
11:14 72.0 °F /  22.2 °C 65.5 °F /  18.6 °C 29.89in /  1012.1hPa SW 1.0mph /  1.6km/h 3.0mph /  4.8km/h 80% 0.00in /  0mm
11:19 72.1 °F /  22.3 °C 65.6 °F /  18.7 °C 29.90in /  1012.4hPa Calm   3.0mph /  4.8km/h 80% 0.00in /  0mm
11:24 72.5 °F /  22.5 °C 66.0 °F /  18.9 °C 29.90in /  1012.4hPa Calm   1.0mph /  1.6km/h 80% 0.00in /  0mm
11:29 73.5 °F /  23.1 °C 67.3 °F /  19.6 °C 29.90in /  1012.4hPa Calm   1.0mph /  1.6km/h 81% 0.00in /  0mm
11:34 74.5 °F /  23.6 °C 66.8 °F /  19.3 °C 29.89in /  1012.1hPa Calm     77% 0.00in /  0mm
11:39 75.7 °F /  24.3 °C 68.4 °F /  20.2 °C 29.89in /  1012.1hPa SW 1.0mph /  1.6km/h 6.0mph /  9.7km/h 78% 0.00in /  0mm
11:44 76.5 °F /  24.7 °C 67.6 °F /  19.8 °C 29.89in /  1012.1hPa Calm   6.0mph /  9.7km/h 74% 0.00in /  0mm
11:49 77.1 °F /  25.1 °C 67.4 °F /  19.7 °C 29.89in /  1012.1hPa Calm   6.0mph /  9.7km/h 72% 0.00in /  0mm
11:54 77.8 °F /  25.4 °C 68.9 °F /  20.5 °C 29.89in /  1012.1hPa Calm   4.0mph /  6.4km/h 74% 0.00in /  0mm
11:59 78.1 °F /  25.6 °C 68.3 °F /  20.2 °C 29.89in /  1012.1hPa Calm   1.0mph /  1.6km/h 72% 0.00in /  0mm
12:04 78.4 °F /  25.8 °C 68.2 °F /  20.1 °C 29.89in /  1012.1hPa Calm   3.0mph /  4.8km/h 71% 0.00in /  0mm
12:09 78.7 °F /  25.9 °C 69.3 °F /  20.7 °C 29.89in /  1012.1hPa Calm   3.0mph /  4.8km/h 73% 0.00in /  0mm
12:14 79.3 °F /  26.3 °C 68.7 °F /  20.4 °C 29.88in /  1011.7hPa Calm     70% 0.00in /  0mm
12:19 79.5 °F /  26.4 °C 68.9 °F /  20.5 °C 29.88in /  1011.7hPa Calm     70% 0.00in /  0mm
12:24 79.8 °F /  26.6 °C 67.4 °F /  19.7 °C 29.88in /  1011.7hPa Calm     66% 0.00in /  0mm
12:29 79.5 °F /  26.4 °C 67.6 °F /  19.8 °C 29.88in /  1011.7hPa Calm     67% 0.00in /  0mm
12:34 79.3 °F /  26.3 °C 67.4 °F /  19.7 °C 29.87in /  1011.4hPa ENE 2.0mph /  3.2km/h 4.0mph /  6.4km/h 67% 0.00in /  0mm
12:39 78.9 °F /  26.1 °C 68.7 °F /  20.4 °C 29.88in /  1011.7hPa Calm   5.0mph /  8km/h 71% 0.00in /  0mm
12:44 78.7 °F /  25.9 °C 68.1 °F /  20.1 °C 29.88in /  1011.7hPa Calm   5.0mph /  8km/h 70% 0.00in /  0mm
12:49 78.7 °F /  25.9 °C 68.5 °F /  20.3 °C 29.88in /  1011.7hPa Calm   4.0mph /  6.4km/h 71% 0.00in /  0mm
12:54 78.7 °F /  25.9 °C 67.7 °F /  19.8 °C 29.88in /  1011.7hPa NE 3.0mph /  4.8km/h 5.0mph /  8km/h 69% 0.00in /  0mm
12:59 78.7 °F /  25.9 °C 68.5 °F /  20.3 °C 29.87in /  1011.4hPa East 1.0mph /  1.6km/h 5.0mph /  8km/h 71% 0.00in /  0mm
13:04 79.6 °F /  26.4 °C 69.0 °F /  20.6 °C 29.87in /  1011.4hPa Calm   4.0mph /  6.4km/h 70% 0.00in /  0mm
13:09 80.1 °F /  26.7 °C 69.0 °F /  20.6 °C 29.87in /  1011.4hPa Calm   1.0mph /  1.6km/h 69% 0.00in /  0mm
13:14 80.4 °F /  26.9 °C 68.0 °F /  20 °C 29.87in /  1011.4hPa Calm   1.0mph /  1.6km/h 66% 0.00in /  0mm
13:19 80.9 °F /  27.2 °C 68.9 °F /  20.5 °C 29.86in /  1011.1hPa Calm   1.0mph /  1.6km/h 67% 0.00in /  0mm
13:24 80.9 °F /  27.2 °C 68.0 °F /  20 °C 29.86in /  1011.1hPa Calm   1.0mph /  1.6km/h 65% 0.00in /  0mm
13:29 80.4 °F /  26.9 °C 68.0 °F /  20 °C 29.86in /  1011.1hPa Calm   1.0mph /  1.6km/h 66% 0.00in /  0mm
13:34 80.2 °F /  26.8 °C 67.8 °F /  19.9 °C 29.86in /  1011.1hPa Calm     66% 0.00in /  0mm
13:39 79.9 °F /  26.6 °C 67.1 °F /  19.5 °C 29.86in /  1011.1hPa Calm   1.0mph /  1.6km/h 65% 0.00in /  0mm
13:44 79.3 °F /  26.3 °C 66.5 °F /  19.2 °C 29.86in /  1011.1hPa Calm   1.0mph /  1.6km/h 65% 0.00in /  0mm
13:49 78.8 °F /  26 °C 67.8 °F /  19.9 °C 29.86in /  1011.1hPa Calm   1.0mph /  1.6km/h 69% 0.00in /  0mm
13:54 78.7 °F /  25.9 °C 67.7 °F /  19.8 °C 29.85in /  1010.7hPa Calm   1.0mph /  1.6km/h 69% 0.00in /  0mm
13:59 78.7 °F /  25.9 °C 67.7 °F /  19.8 °C 29.86in /  1011.1hPa Calm   1.0mph /  1.6km/h 69% 0.00in /  0mm
14:04 79.4 °F /  26.3 °C 68.4 °F /  20.2 °C 29.86in /  1011.1hPa Calm   1.0mph /  1.6km/h 69% 0.00in /  0mm
14:09 79.8 °F /  26.6 °C 67.9 °F /  19.9 °C 29.85in /  1010.7hPa Calm   1.0mph /  1.6km/h 67% 0.00in /  0mm
14:14 80.0 °F /  26.7 °C 67.6 °F /  19.8 °C 29.85in /  1010.7hPa SE 1.0mph /  1.6km/h 3.0mph /  4.8km/h 66% 0.00in /  0mm
14:19 79.7 °F /  26.5 °C 67.3 °F /  19.6 °C 29.85in /  1010.7hPa Calm   3.0mph /  4.8km/h 66% 0.00in /  0mm
14:24 79.6 °F /  26.4 °C 69.0 °F /  20.6 °C 29.85in /  1010.7hPa Calm   1.0mph /  1.6km/h 70% 0.00in /  0mm
14:29 79.4 °F /  26.3 °C 69.2 °F /  20.7 °C 29.85in /  1010.7hPa Calm   1.0mph /  1.6km/h 71% 0.00in /  0mm
14:34 79.2 °F /  26.2 °C 68.6 °F /  20.3 °C 29.85in /  1010.7hPa ENE 1.0mph /  1.6km/h 4.0mph /  6.4km/h 70% 0.00in /  0mm
14:39 78.7 °F /  25.9 °C 67.7 °F /  19.8 °C 29.85in /  1010.7hPa Calm   7.0mph /  11.3km/h 69% 0.00in /  0mm
14:44 78.2 °F /  25.7 °C 68.0 °F /  20 °C 29.85in /  1010.7hPa NE 1.0mph /  1.6km/h 7.0mph /  11.3km/h 71% 0.00in /  0mm
14:49 78.0 °F /  25.6 °C 68.7 °F /  20.4 °C 29.85in /  1010.7hPa Calm   3.0mph /  4.8km/h 73% 0.00in /  0mm
14:54 77.8 °F /  25.4 °C 68.1 °F /  20.1 °C 29.85in /  1010.7hPa Calm     72% 0.00in /  0mm
14:59 77.6 °F /  25.3 °C 68.7 °F /  20.4 °C 29.85in /  1010.7hPa Calm   2.0mph /  3.2km/h 74% 0.00in /  0mm
15:04 77.3 °F /  25.2 °C 69.2 °F /  20.7 °C 29.85in /  1010.7hPa Calm   2.0mph /  3.2km/h 76% 0.00in /  0mm
15:09 77.0 °F /  25 °C 68.9 °F /  20.5 °C 29.85in /  1010.7hPa Calm     76% 0.00in /  0mm
15:14 76.8 °F /  24.9 °C 69.4 °F /  20.8 °C 29.85in /  1010.7hPa Calm     78% 0.00in /  0mm
15:19 76.4 °F /  24.7 °C 69.0 °F /  20.6 °C 29.85in /  1010.7hPa Calm     78% 0.00in /  0mm
15:24 76.2 °F /  24.6 °C 69.2 °F /  20.7 °C 29.85in /  1010.7hPa Calm     79% 0.00in /  0mm
15:29 75.8 °F /  24.3 °C 69.2 °F /  20.7 °C 29.86in /  1011.1hPa Calm     80% 0.00in /  0mm
15:34 75.4 °F /  24.1 °C 69.2 °F /  20.7 °C 29.86in /  1011.1hPa Calm     81% 0.00in /  0mm
15:40 74.9 °F /  23.8 °C 69.0 °F /  20.6 °C 29.86in /  1011.1hPa Calm     82% 0.01in /  0.3mm
15:49 73.7 °F /  23.2 °C 68.9 °F /  20.5 °C 29.87in /  1011.4hPa Calm   2.0mph /  3.2km/h 85% 0.02in /  0.5mm
15:54 73.2 °F /  22.9 °C 68.4 °F /  20.2 °C 29.86in /  1011.1hPa WSW 2.0mph /  3.2km/h 4.0mph /  6.4km/h 85% 0.04in /  1mm
15:59 72.8 °F /  22.7 °C 68.4 °F /  20.2 °C 29.85in /  1010.7hPa Calm   4.0mph /  6.4km/h 86% 0.06in /  1.5mm
16:04 72.8 °F /  22.7 °C 69.0 °F /  20.6 °C 29.85in /  1010.7hPa Calm   3.0mph /  4.8km/h 88% 0.07in /  1.8mm
16:09 72.8 °F /  22.7 °C 69.0 °F /  20.6 °C 29.84in /  1010.4hPa North 1.0mph /  1.6km/h 3.0mph /  4.8km/h 88% 0.08in /  2mm
16:14 72.9 °F /  22.7 °C 69.5 °F /  20.8 °C 29.84in /  1010.4hPa Calm   3.0mph /  4.8km/h 89% 0.08in /  2mm
16:19 73.1 °F /  22.8 °C 70.0 °F /  21.1 °C 29.84in /  1010.4hPa Calm     90% 0.08in /  2mm
16:24 73.1 °F /  22.8 °C 69.7 °F /  20.9 °C 29.84in /  1010.4hPa Calm     89% 0.08in /  2mm
16:29 73.2 °F /  22.9 °C 70.1 °F /  21.2 °C 29.85in /  1010.7hPa Calm     90% 0.08in /  2mm
16:34 73.2 °F /  22.9 °C 69.8 °F /  21 °C 29.84in /  1010.4hPa Calm   1.0mph /  1.6km/h 89% 0.08in /  2mm
16:39 73.1 °F /  22.8 °C 69.7 °F /  20.9 °C 29.84in /  1010.4hPa Calm   1.0mph /  1.6km/h 89% 0.08in /  2mm
16:44 73.4 °F /  23 °C 70.0 °F /  21.1 °C 29.85in /  1010.7hPa Calm     89% 0.08in /  2mm
16:49 73.5 °F /  23.1 °C 70.1 °F /  21.2 °C 29.85in /  1010.7hPa Calm     89% 0.08in /  2mm
16:54 73.6 °F /  23.1 °C 70.2 °F /  21.2 °C 29.85in /  1010.7hPa Calm     89% 0.08in /  2mm
16:59 73.9 °F /  23.3 °C 70.5 °F /  21.4 °C 29.85in /  1010.7hPa Calm   1.0mph /  1.6km/h 89% 0.08in /  2mm
17:04 74.0 °F /  23.3 °C 70.6 °F /  21.4 °C 29.85in /  1010.7hPa Calm   1.0mph /  1.6km/h 89% 0.08in /  2mm
17:09 73.8 °F /  23.2 °C 70.4 °F /  21.3 °C 29.84in /  1010.4hPa Calm     89% 0.08in /  2mm
17:14 73.6 °F /  23.1 °C 69.8 °F /  21 °C 29.85in /  1010.7hPa Calm   3.0mph /  4.8km/h 88% 0.08in /  2mm
17:19 73.6 °F /  23.1 °C 69.8 °F /  21 °C 29.84in /  1010.4hPa Calm   3.0mph /  4.8km/h 88% 0.08in /  2mm
17:24 73.4 °F /  23 °C 69.6 °F /  20.9 °C 29.84in /  1010.4hPa Calm     88% 0.08in /  2mm
17:29 73.4 °F /  23 °C 70.0 °F /  21.1 °C 29.84in /  1010.4hPa Calm     89% 0.08in /  2mm
17:34 73.2 °F /  22.9 °C 69.8 °F /  21 °C 29.84in /  1010.4hPa Calm   1.0mph /  1.6km/h 89% 0.08in /  2mm
17:39 72.9 °F /  22.7 °C 69.5 °F /  20.8 °C 29.84in /  1010.4hPa Calm   1.0mph /  1.6km/h 89% 0.08in /  2mm
17:44 72.6 °F /  22.6 °C 69.2 °F /  20.7 °C 29.84in /  1010.4hPa Calm   1.0mph /  1.6km/h 89% 0.08in /  2mm
17:49 72.2 °F /  22.3 °C 68.8 °F /  20.4 °C 29.85in /  1010.7hPa Calm   2.0mph /  3.2km/h 89% 0.08in /  2mm
17:54 72.0 °F /  22.2 °C 68.6 °F /  20.3 °C 29.85in /  1010.7hPa Calm   2.0mph /  3.2km/h 89% 0.08in /  2mm
17:59 72.0 °F /  22.2 °C 68.9 °F /  20.5 °C 29.85in /  1010.7hPa Calm     90% 0.08in /  2mm
18:04 72.0 °F /  22.2 °C 68.9 °F /  20.5 °C 29.85in /  1010.7hPa Calm     90% 0.08in /  2mm
18:09 71.9 °F /  22.2 °C 68.8 °F /  20.4 °C 29.85in /  1010.7hPa Calm     90% 0.08in /  2mm
18:19 71.7 °F /  22.1 °C 68.6 °F /  20.3 °C 29.86in /  1011.1hPa Calm     90% 0.08in /  2mm
18:24 71.7 °F /  22.1 °C 68.9 °F /  20.5 °C 29.86in /  1011.1hPa Calm     91% 0.08in /  2mm
18:29 71.7 °F /  22.1 °C 68.9 °F /  20.5 °C 29.86in /  1011.1hPa Calm     91% 0.08in /  2mm
18:34 71.7 °F /  22.1 °C 68.9 °F /  20.5 °C 29.86in /  1011.1hPa Calm     91% 0.08in /  2mm
18:39 71.6 °F /  22 °C 68.8 °F /  20.4 °C 29.85in /  1010.7hPa Calm     91% 0.08in /  2mm
18:44 71.7 °F /  22.1 °C 68.9 °F /  20.5 °C 29.85in /  1010.7hPa Calm     91% 0.08in /  2mm
18:49 71.7 °F /  22.1 °C 68.9 °F /  20.5 °C 29.85in /  1010.7hPa Calm     91% 0.08in /  2mm
18:54 71.6 °F /  22 °C 68.8 °F /  20.4 °C 29.85in /  1010.7hPa Calm     91% 0.08in /  2mm
18:59 71.5 °F /  21.9 °C 69.1 °F /  20.6 °C 29.86in /  1011.1hPa Calm     92% 0.08in /  2mm
19:04 71.3 °F /  21.8 °C 68.9 °F /  20.5 °C 29.86in /  1011.1hPa Calm     92% 0.08in /  2mm
19:09 71.2 °F /  21.8 °C 68.4 °F /  20.2 °C 29.86in /  1011.1hPa Calm     91% 0.08in /  2mm
19:14 70.9 °F /  21.6 °C 68.1 °F /  20.1 °C 29.86in /  1011.1hPa Calm     91% 0.08in /  2mm
19:19 70.7 °F /  21.5 °C 67.9 °F /  19.9 °C 29.85in /  1010.7hPa Calm     91% 0.08in /  2mm
19:24 70.5 °F /  21.4 °C 68.1 °F /  20.1 °C 29.85in /  1010.7hPa Calm     92% 0.08in /  2mm
19:29 70.3 °F /  21.3 °C 67.5 °F /  19.7 °C 29.85in /  1010.7hPa Calm     91% 0.08in /  2mm
19:34 70.1 °F /  21.2 °C 67.4 °F /  19.7 °C 29.85in /  1010.7hPa Calm   1.0mph /  1.6km/h 91% 0.08in /  2mm
19:39 70.0 °F /  21.1 °C 67.6 °F /  19.8 °C 29.85in /  1010.7hPa Calm   1.0mph /  1.6km/h 92% 0.08in /  2mm
19:44 69.8 °F /  21 °C 67.4 °F /  19.7 °C 29.85in /  1010.7hPa Calm     92% 0.08in /  2mm
19:49 69.7 °F /  20.9 °C 67.0 °F /  19.4 °C 29.85in /  1010.7hPa Calm     91% 0.08in /  2mm
19:54 69.5 °F /  20.8 °C 67.1 °F /  19.5 °C 29.85in /  1010.7hPa Calm     92% 0.08in /  2mm
19:59 69.4 °F /  20.8 °C 67.0 °F /  19.4 °C 29.86in /  1011.1hPa Calm     92% 0.08in /  2mm
20:04 69.5 °F /  20.8 °C 67.1 °F /  19.5 °C 29.85in /  1010.7hPa Calm     92% 0.08in /  2mm
20:09 69.5 °F /  20.8 °C 67.1 °F /  19.5 °C 29.86in /  1011.1hPa Calm   3.0mph /  4.8km/h 92% 0.08in /  2mm
20:14 69.4 °F /  20.8 °C 67.0 °F /  19.4 °C 29.86in /  1011.1hPa Calm   3.0mph /  4.8km/h 92% 0.08in /  2mm
20:19 69.4 °F /  20.8 °C 67.0 °F /  19.4 °C 29.86in /  1011.1hPa Calm   4.0mph /  6.4km/h 92% 0.08in /  2mm
20:24 69.2 °F /  20.7 °C 67.1 °F /  19.5 °C 29.87in /  1011.4hPa Calm   4.0mph /  6.4km/h 93% 0.08in /  2mm
20:29 69.2 °F /  20.7 °C 66.8 °F /  19.3 °C 29.87in /  1011.4hPa Calm   1.0mph /  1.6km/h 92% 0.08in /  2mm
20:34 69.0 °F /  20.6 °C 66.6 °F /  19.2 °C 29.86in /  1011.1hPa Calm   2.0mph /  3.2km/h 92% 0.08in /  2mm
20:39 68.9 °F /  20.5 °C 66.5 °F /  19.2 °C 29.86in /  1011.1hPa Calm   4.0mph /  6.4km/h 92% 0.09in /  2.3mm
20:44 68.8 °F /  20.4 °C 66.4 °F /  19.1 °C 29.86in /  1011.1hPa Calm   4.0mph /  6.4km/h 92% 0.11in /  2.8mm
20:49 68.7 °F /  20.4 °C 66.6 °F /  19.2 °C 29.86in /  1011.1hPa Calm   1.0mph /  1.6km/h 93% 0.13in /  3.3mm
20:54 68.6 °F /  20.3 °C 66.5 °F /  19.2 °C 29.87in /  1011.4hPa Calm     93% 0.15in /  3.8mm
20:59 68.5 °F /  20.3 °C 66.1 °F /  18.9 °C 29.87in /  1011.4hPa Calm   3.0mph /  4.8km/h 92% 0.19in /  4.8mm
21:04 68.4 °F /  20.2 °C 66.3 °F /  19.1 °C 29.86in /  1011.1hPa Calm   3.0mph /  4.8km/h 93% 0.23in /  5.8mm
21:09 68.4 °F /  20.2 °C 66.3 °F /  19.1 °C 29.86in /  1011.1hPa Calm   1.0mph /  1.6km/h 93% 0.25in /  6.4mm
21:14 68.3 °F /  20.2 °C 66.2 °F /  19 °C 29.86in /  1011.1hPa Calm   1.0mph /  1.6km/h 93% 0.26in /  6.6mm
21:19 68.3 °F /  20.2 °C 66.2 °F /  19 °C 29.85in /  1010.7hPa Calm   1.0mph /  1.6km/h 93% 0.26in /  6.6mm
21:24 68.3 °F /  20.2 °C 66.2 °F /  19 °C 29.85in /  1010.7hPa Calm     93% 0.26in /  6.6mm
21:29 68.3 °F /  20.2 °C 66.2 °F /  19 °C 29.85in /  1010.7hPa Calm     93% 0.26in /  6.6mm
21:34 68.4 °F /  20.2 °C 66.6 °F /  19.2 °C 29.85in /  1010.7hPa Calm     94% 0.26in /  6.6mm
21:39 68.4 °F /  20.2 °C 66.6 °F /  19.2 °C 29.85in /  1010.7hPa Calm     94% 0.26in /  6.6mm
21:44 68.3 °F /  20.2 °C 66.5 °F /  19.2 °C 29.85in /  1010.7hPa Calm     94% 0.26in /  6.6mm
21:49 68.2 °F /  20.1 °C 66.4 °F /  19.1 °C 29.85in /  1010.7hPa Calm     94% 0.26in /  6.6mm
21:54 68.1 °F /  20.1 °C 66.3 °F /  19.1 °C 29.85in /  1010.7hPa Calm     94% 0.27in /  6.9mm
21:59 68.1 °F /  20.1 °C 66.3 °F /  19.1 °C 29.85in /  1010.7hPa Calm     94% 0.27in /  6.9mm
22:04 68.0 °F /  20 °C 66.2 °F /  19 °C 29.85in /  1010.7hPa Calm     94% 0.27in /  6.9mm
22:09 67.8 °F /  19.9 °C 66.0 °F /  18.9 °C 29.85in /  1010.7hPa Calm     94% 0.27in /  6.9mm
22:14 67.6 °F /  19.8 °C 65.8 °F /  18.8 °C 29.85in /  1010.7hPa Calm     94% 0.27in /  6.9mm
22:19 67.5 °F /  19.7 °C 65.7 °F /  18.7 °C 29.85in /  1010.7hPa Calm     94% 0.27in /  6.9mm
22:24 67.4 °F /  19.7 °C 65.6 °F /  18.7 °C 29.85in /  1010.7hPa Calm     94% 0.27in /  6.9mm
22:29 67.3 °F /  19.6 °C 65.5 °F /  18.6 °C 29.84in /  1010.4hPa Calm     94% 0.27in /  6.9mm
22:34 67.4 °F /  19.7 °C 65.6 °F /  18.7 °C 29.85in /  1010.7hPa Calm     94% 0.27in /  6.9mm
22:39 67.3 °F /  19.6 °C 65.5 °F /  18.6 °C 29.85in /  1010.7hPa Calm     94% 0.27in /  6.9mm
22:44 67.2 °F /  19.6 °C 65.4 °F /  18.6 °C 29.85in /  1010.7hPa Calm     94% 0.27in /  6.9mm
22:49 67.1 °F /  19.5 °C 65.3 °F /  18.5 °C 29.85in /  1010.7hPa Calm     94% 0.27in /  6.9mm
22:54 66.9 °F /  19.4 °C 65.4 °F /  18.6 °C 29.85in /  1010.7hPa Calm     95% 0.27in /  6.9mm
22:59 66.7 °F /  19.3 °C 64.9 °F /  18.3 °C 29.84in /  1010.4hPa Calm     94% 0.27in /  6.9mm
23:04 66.7 °F /  19.3 °C 65.2 °F /  18.4 °C 29.84in /  1010.4hPa Calm     95% 0.27in /  6.9mm
23:09 66.7 °F /  19.3 °C 65.2 °F /  18.4 °C 29.84in /  1010.4hPa Calm     95% 0.27in /  6.9mm
23:14 66.7 °F /  19.3 °C 65.2 °F /  18.4 °C 29.84in /  1010.4hPa Calm     95% 0.27in /  6.9mm
23:19 66.8 °F /  19.3 °C 65.3 °F /  18.5 °C 29.84in /  1010.4hPa Calm     95% 0.27in /  6.9mm
23:24 66.7 °F /  19.3 °C 65.2 °F /  18.4 °C 29.84in /  1010.4hPa Calm     95% 0.27in /  6.9mm
23:29 66.7 °F /  19.3 °C 65.2 °F /  18.4 °C 29.84in /  1010.4hPa Calm     95% 0.27in /  6.9mm
23:34 66.7 °F /  19.3 °C 65.2 °F /  18.4 °C 29.84in /  1010.4hPa Calm     95% 0.27in /  6.9mm
23:39 66.7 °F /  19.3 °C 65.2 °F /  18.4 °C 29.83in /  1010hPa Calm     95% 0.27in /  6.9mm
23:44 66.7 °F /  19.3 °C 65.2 °F /  18.4 °C 29.83in /  1010hPa Calm     95% 0.27in /  6.9mm
23:49 66.8 °F /  19.3 °C 65.6 °F /  18.7 °C 29.83in /  1010hPa Calm     96% 0.27in /  6.9mm
23:54 66.9 °F /  19.4 °C 65.7 °F /  18.7 °C 29.82in /  1009.7hPa Calm     96% 0.27in /  6.9mm
23:59 66.9 °F /  19.4 °C 65.7 °F /  18.7 °C 29.82in /  1009.7hPa Calm     96% 0.27in /  6.9mm
Westford Weather
Compliments of Weather Underground

 
 
Current Radar Loop:

Copyright © WestfordWeather.net 2007-2014. All rights reserved.